sensor_id;sensor_type;location;lat;lon;timestamp;pressure;altitude;pressure_sealevel;temperature;humidity
76285;BME280;71676;50.998;7.098;2024-03-02T00:00:14;99544.63;;;5.65;59.21
76285;BME280;71676;50.998;7.098;2024-03-02T00:02:41;99551.59;;;5.87;58.03
76285;BME280;71676;50.998;7.098;2024-03-02T00:05:11;99533.56;;;5.72;58.49
76285;BME280;71676;50.998;7.098;2024-03-02T00:07:39;99535.22;;;5.64;59.20
76285;BME280;71676;50.998;7.098;2024-03-02T00:10:10;99542.78;;;5.49;59.44
76285;BME280;71676;50.998;7.098;2024-03-02T00:12:38;99490.44;;;5.10;59.90
76285;BME280;71676;50.998;7.098;2024-03-02T00:15:15;99536.78;;;5.44;60.02
76285;BME280;71676;50.998;7.098;2024-03-02T00:17:52;99536.84;;;5.53;59.71
76285;BME280;71676;50.998;7.098;2024-03-02T00:20:22;99532.22;;;5.15;60.80
76285;BME280;71676;50.998;7.098;2024-03-02T00:22:49;99541.78;;;5.35;60.14
76285;BME280;71676;50.998;7.098;2024-03-02T00:25:18;99537.59;;;5.45;60.01
76285;BME280;71676;50.998;7.098;2024-03-02T00:27:47;99529.91;;;5.40;59.90
76285;BME280;71676;50.998;7.098;2024-03-02T00:30:41;99503.31;;;5.17;60.00
76285;BME280;71676;50.998;7.098;2024-03-02T00:33:13;99522.97;;;5.26;60.20
76285;BME280;71676;50.998;7.098;2024-03-02T00:35:39;99520.63;;;5.53;59.23
76285;BME280;71676;50.998;7.098;2024-03-02T00:38:06;99527.44;;;5.46;59.58
76285;BME280;71676;50.998;7.098;2024-03-02T00:40:34;99528.13;;;5.30;59.96
76285;BME280;71676;50.998;7.098;2024-03-02T00:43:01;99512.94;;;5.53;59.36
76285;BME280;71676;50.998;7.098;2024-03-02T00:45:29;99498.59;;;5.67;59.14
76285;BME280;71676;50.998;7.098;2024-03-02T00:47:56;99501.16;;;5.67;58.68
76285;BME280;71676;50.998;7.098;2024-03-02T00:50:22;99506.25;;;5.64;58.92
76285;BME280;71676;50.998;7.098;2024-03-02T00:52:49;99499.34;;;5.52;59.46
76285;BME280;71676;50.998;7.098;2024-03-02T00:55:16;99509.56;;;5.51;59.37
76285;BME280;71676;50.998;7.098;2024-03-02T00:57:44;99502.84;;;5.66;58.75
76285;BME280;71676;50.998;7.098;2024-03-02T01:00:11;99503.53;;;5.43;59.65
76285;BME280;71676;50.998;7.098;2024-03-02T01:02:40;99505.41;;;5.71;58.59
76285;BME280;71676;50.998;7.098;2024-03-02T01:05:07;99504.41;;;5.46;59.18
76285;BME280;71676;50.998;7.098;2024-03-02T01:07:34;99501.06;;;5.59;59.05
76285;BME280;71676;50.998;7.098;2024-03-02T01:10:01;99497.78;;;5.77;58.40
76285;BME280;71676;50.998;7.098;2024-03-02T01:12:28;99506.31;;;5.77;58.19
76285;BME280;71676;50.998;7.098;2024-03-02T01:14:56;99499.56;;;5.87;57.94
76285;BME280;71676;50.998;7.098;2024-03-02T01:17:23;99496.19;;;5.89;57.80
76285;BME280;71676;50.998;7.098;2024-03-02T01:19:50;99497.91;;;6.01;57.67
76285;BME280;71676;50.998;7.098;2024-03-02T01:22:16;99500.38;;;5.81;57.64
76285;BME280;71676;50.998;7.098;2024-03-02T01:24:49;99500.31;;;5.69;58.15
76285;BME280;71676;50.998;7.098;2024-03-02T01:27:15;99480.75;;;5.79;57.52
76285;BME280;71676;50.998;7.098;2024-03-02T01:29:42;99493.53;;;5.77;57.77
76285;BME280;71676;50.998;7.098;2024-03-02T01:32:10;99494.31;;;5.69;57.94
76285;BME280;71676;50.998;7.098;2024-03-02T01:34:36;99490.84;;;5.61;58.49
76285;BME280;71676;50.998;7.098;2024-03-02T01:37:03;99489.25;;;5.73;57.65
76285;BME280;71676;50.998;7.098;2024-03-02T01:39:30;99489.34;;;5.90;57.69
76285;BME280;71676;50.998;7.098;2024-03-02T01:41:56;99480.75;;;5.82;57.64
76285;BME280;71676;50.998;7.098;2024-03-02T01:44:23;99483.28;;;5.74;57.91
76285;BME280;71676;50.998;7.098;2024-03-02T01:46:50;99485.72;;;5.58;58.23
76285;BME280;71676;50.998;7.098;2024-03-02T01:49:18;99484.16;;;5.73;57.86
76285;BME280;71676;50.998;7.098;2024-03-02T01:51:45;99479.06;;;5.78;57.78
76285;BME280;71676;50.998;7.098;2024-03-02T01:54:11;99487.59;;;5.81;57.46
76285;BME280;71676;50.998;7.098;2024-03-02T01:56:39;99477.38;;;5.80;57.34
76285;BME280;71676;50.998;7.098;2024-03-02T01:59:06;99476.41;;;5.69;57.53
76285;BME280;71676;50.998;7.098;2024-03-02T02:01:32;99474.72;;;5.66;57.55
76285;BME280;71676;50.998;7.098;2024-03-02T02:03:59;99472.28;;;5.87;57.25
76285;BME280;71676;50.998;7.098;2024-03-02T02:06:27;99472.16;;;5.69;57.66
76285;BME280;71676;50.998;7.098;2024-03-02T02:08:54;99480.72;;;5.76;57.74
76285;BME280;71676;50.998;7.098;2024-03-02T02:11:21;99478.19;;;5.76;57.29
76285;BME280;71676;50.998;7.098;2024-03-02T02:13:47;99476.50;;;5.79;57.66
76285;BME280;71676;50.998;7.098;2024-03-02T02:16:14;99472.94;;;5.61;58.08
76285;BME280;71676;50.998;7.098;2024-03-02T02:18:41;99467.84;;;5.61;58.10
76285;BME280;71676;50.998;7.098;2024-03-02T02:21:07;99471.31;;;5.69;57.95
76285;BME280;71676;50.998;7.098;2024-03-02T02:23:35;99422.63;;;5.48;57.47
76285;BME280;71676;50.998;7.098;2024-03-02T02:26:02;99481.72;;;5.97;57.22
76285;BME280;71676;50.998;7.098;2024-03-02T02:28:29;99474.06;;;6.00;57.04
76285;BME280;71676;50.998;7.098;2024-03-02T02:30:55;99472.09;;;5.57;58.13
76285;BME280;71676;50.998;7.098;2024-03-02T02:33:23;99474.81;;;5.80;57.46
76285;BME280;71676;50.998;7.098;2024-03-02T02:35:49;99474.81;;;5.81;57.35
76285;BME280;71676;50.998;7.098;2024-03-02T02:38:16;99472.28;;;5.90;57.20
76285;BME280;71676;50.998;7.098;2024-03-02T02:40:46;99479.13;;;5.94;57.11
76285;BME280;71676;50.998;7.098;2024-03-02T02:43:13;99476.56;;;5.94;57.14
76285;BME280;71676;50.998;7.098;2024-03-02T02:45:39;99471.41;;;5.88;57.18
76285;BME280;71676;50.998;7.098;2024-03-02T02:48:06;99471.50;;;6.03;56.97
76285;BME280;71676;50.998;7.098;2024-03-02T02:50:33;99469.75;;;5.92;57.21
76285;BME280;71676;50.998;7.098;2024-03-02T02:53:00;99466.31;;;5.93;56.99
76285;BME280;71676;50.998;7.098;2024-03-02T02:55:26;99471.53;;;6.06;56.83
76285;BME280;71676;50.998;7.098;2024-03-02T02:57:54;99470.63;;;5.95;56.95
76285;BME280;71676;50.998;7.098;2024-03-02T03:00:21;99473.19;;;6.00;57.00
76285;BME280;71676;50.998;7.098;2024-03-02T03:02:49;99436.38;;;5.71;56.83
76285;BME280;71676;50.998;7.098;2024-03-02T03:05:16;99464.53;;;5.75;57.15
76285;BME280;71676;50.998;7.098;2024-03-02T03:07:43;99458.59;;;5.79;56.78
76285;BME280;71676;50.998;7.098;2024-03-02T03:10:10;99471.44;;;5.90;56.91
76285;BME280;71676;50.998;7.098;2024-03-02T03:12:37;99472.28;;;5.90;57.12
76285;BME280;71676;50.998;7.098;2024-03-02T03:15:06;99468.97;;;6.06;56.22
76285;BME280;71676;50.998;7.098;2024-03-02T03:17:33;99462.16;;;6.07;56.30
76285;BME280;71676;50.998;7.098;2024-03-02T03:20:00;99481.78;;;6.12;56.25
76285;BME280;71676;50.998;7.098;2024-03-02T03:22:29;99471.53;;;6.08;56.37
76285;BME280;71676;50.998;7.098;2024-03-02T03:24:56;99474.19;;;6.21;55.91
76285;BME280;71676;50.998;7.098;2024-03-02T03:27:22;99482.66;;;6.16;56.06
76285;BME280;71676;50.998;7.098;2024-03-02T03:29:49;99463.75;;;5.87;56.69
76285;BME280;71676;50.998;7.098;2024-03-02T03:32:17;99479.19;;;5.99;56.08
76285;BME280;71676;50.998;7.098;2024-03-02T03:34:43;99457.78;;;5.88;56.23
76285;BME280;71676;50.998;7.098;2024-03-02T03:37:10;99476.50;;;5.82;56.55
76285;BME280;71676;50.998;7.098;2024-03-02T03:39:37;99479.03;;;5.75;56.84
76285;BME280;71676;50.998;7.098;2024-03-02T03:42:04;99480.06;;;6.04;56.22
76285;BME280;71676;50.998;7.098;2024-03-02T03:44:31;99477.41;;;5.92;56.55
76285;BME280;71676;50.998;7.098;2024-03-02T03:46:58;99446.56;;;5.63;56.14
76285;BME280;71676;50.998;7.098;2024-03-02T03:49:27;99495.22;;;5.78;56.86
76285;BME280;71676;50.998;7.098;2024-03-02T03:51:54;99496.22;;;5.97;56.26
76285;BME280;71676;50.998;7.098;2024-03-02T03:54:20;99491.09;;;5.95;56.10
76285;BME280;71676;50.998;7.098;2024-03-02T03:56:47;99492.91;;;6.16;55.91
76285;BME280;71676;50.998;7.098;2024-03-02T03:59:14;99495.38;;;6.02;55.92
76285;BME280;71676;50.998;7.098;2024-03-02T04:01:40;99493.66;;;5.95;56.44
76285;BME280;71676;50.998;7.098;2024-03-02T04:04:07;99494.63;;;6.20;55.74
76285;BME280;71676;50.998;7.098;2024-03-02T04:06:35;99486.16;;;6.34;55.45
76285;BME280;71676;50.998;7.098;2024-03-02T04:09:02;99482.78;;;6.34;55.03
76285;BME280;71676;50.998;7.098;2024-03-02T04:11:29;99477.50;;;6.10;55.63
76285;BME280;71676;50.998;7.098;2024-03-02T04:13:55;99472.28;;;5.86;56.04
76285;BME280;71676;50.998;7.098;2024-03-02T04:16:22;99488.69;;;6.22;55.45
76285;BME280;71676;50.998;7.098;2024-03-02T04:18:49;99484.34;;;6.17;55.47
76285;BME280;71676;50.998;7.098;2024-03-02T04:21:15;99432.09;;;5.67;55.97
76285;BME280;71676;50.998;7.098;2024-03-02T04:23:43;99482.72;;;6.26;55.61
76285;BME280;71676;50.998;7.098;2024-03-02T04:26:10;99494.72;;;6.37;55.33
76285;BME280;71676;50.998;7.098;2024-03-02T04:28:37;99500.56;;;6.10;55.59
76285;BME280;71676;50.998;7.098;2024-03-02T04:31:03;99498.81;;;6.04;56.03
76285;BME280;71676;50.998;7.098;2024-03-02T04:33:30;99501.47;;;6.19;55.73
76285;BME280;71676;50.998;7.098;2024-03-02T04:35:56;99467.28;;;6.10;55.21
76285;BME280;71676;50.998;7.098;2024-03-02T04:38:23;99498.97;;;6.33;55.43
76285;BME280;71676;50.998;7.098;2024-03-02T04:40:51;99502.25;;;6.14;55.39
76285;BME280;71676;50.998;7.098;2024-03-02T04:43:18;99513.44;;;6.26;55.62
76285;BME280;71676;50.998;7.098;2024-03-02T04:45:44;99504.09;;;6.36;55.23
76285;BME280;71676;50.998;7.098;2024-03-02T04:48:11;99514.38;;;6.39;55.31
76285;BME280;71676;50.998;7.098;2024-03-02T04:50:38;99516.00;;;6.26;55.61
76285;BME280;71676;50.998;7.098;2024-03-02T04:53:05;99522.72;;;6.09;56.14
76285;BME280;71676;50.998;7.098;2024-03-02T04:55:31;99515.91;;;6.07;55.73
76285;BME280;71676;50.998;7.098;2024-03-02T04:58:17;99516.66;;;5.95;56.52
76285;BME280;71676;50.998;7.098;2024-03-02T05:00:43;99520.88;;;5.87;56.46
76285;BME280;71676;50.998;7.098;2024-03-02T05:03:11;99531.13;;;5.87;56.88
76285;BME280;71676;50.998;7.098;2024-03-02T05:05:38;99521.66;;;5.74;57.36
76285;BME280;71676;50.998;7.098;2024-03-02T05:08:05;99530.84;;;5.50;57.67
76285;BME280;71676;50.998;7.098;2024-03-02T05:10:32;99525.88;;;5.71;57.19
76285;BME280;71676;50.998;7.098;2024-03-02T05:12:58;99537.88;;;5.76;57.12
76285;BME280;71676;50.998;7.098;2024-03-02T05:15:26;99534.63;;;6.06;56.25
76285;BME280;71676;50.998;7.098;2024-03-02T05:17:52;99536.34;;;6.05;56.29
76285;BME280;71676;50.998;7.098;2024-03-02T05:20:19;99529.38;;;5.83;56.54
76285;BME280;71676;50.998;7.098;2024-03-02T05:22:46;99531.16;;;5.92;56.38
76285;BME280;71676;50.998;7.098;2024-03-02T05:25:12;99535.31;;;5.76;56.84
76285;BME280;71676;50.998;7.098;2024-03-02T05:27:39;99547.28;;;5.83;56.52
76285;BME280;71676;50.998;7.098;2024-03-02T05:30:07;99537.00;;;5.74;56.97
76285;BME280;71676;50.998;7.098;2024-03-02T05:32:35;99537.78;;;5.67;57.42
76285;BME280;71676;50.998;7.098;2024-03-02T05:35:03;99541.94;;;5.53;57.85
76285;BME280;71676;50.998;7.098;2024-03-02T05:37:31;99529.06;;;5.38;57.93
76285;BME280;71676;50.998;7.098;2024-03-02T05:39:58;99527.50;;;5.57;57.62
76285;BME280;71676;50.998;7.098;2024-03-02T05:42:24;99524.00;;;5.46;57.76
76285;BME280;71676;50.998;7.098;2024-03-02T05:44:52;99523.97;;;5.43;58.19
76285;BME280;71676;50.998;7.098;2024-03-02T05:47:18;99524.78;;;5.39;58.22
76285;BME280;71676;50.998;7.098;2024-03-02T05:49:46;99529.06;;;5.40;58.36
76285;BME280;71676;50.998;7.098;2024-03-02T05:52:13;99531.50;;;5.29;58.64
76285;BME280;71676;50.998;7.098;2024-03-02T05:54:40;99523.84;;;5.29;58.49
76285;BME280;71676;50.998;7.098;2024-03-02T05:57:06;99513.75;;;5.43;58.11
76285;BME280;71676;50.998;7.098;2024-03-02T05:59:57;99518.72;;;5.28;58.65
76285;BME280;71676;50.998;7.098;2024-03-02T06:02:24;99515.38;;;5.32;58.46
76285;BME280;71676;50.998;7.098;2024-03-02T06:04:53;99512.81;;;5.30;58.41
76285;BME280;71676;50.998;7.098;2024-03-02T06:07:20;99510.13;;;5.17;58.67
76285;BME280;71676;50.998;7.098;2024-03-02T06:09:47;99492.28;;;5.24;58.38
76285;BME280;71676;50.998;7.098;2024-03-02T06:12:16;99518.63;;;5.14;58.91
76285;BME280;71676;50.998;7.098;2024-03-02T06:14:43;99504.84;;;5.00;59.02
76285;BME280;71676;50.998;7.098;2024-03-02T06:17:09;99525.44;;;5.17;58.92
76285;BME280;71676;50.998;7.098;2024-03-02T06:19:36;99534.94;;;5.30;58.95
76285;BME280;71676;50.998;7.098;2024-03-02T06:22:04;99530.72;;;5.32;58.68
76285;BME280;71676;50.998;7.098;2024-03-02T06:24:31;99534.94;;;5.31;58.77
76285;BME280;71676;50.998;7.098;2024-03-02T06:26:58;99540.97;;;5.38;58.25
76285;BME280;71676;50.998;7.098;2024-03-02T06:29:24;99541.72;;;5.26;58.75
76285;BME280;71676;50.998;7.098;2024-03-02T06:31:51;99552.16;;;5.50;58.36
76285;BME280;71676;50.998;7.098;2024-03-02T06:34:17;99548.38;;;5.08;59.48
76285;BME280;71676;50.998;7.098;2024-03-02T06:36:44;99546.03;;;5.29;59.03
76285;BME280;71676;50.998;7.098;2024-03-02T06:39:12;99545.09;;;5.22;59.24
76285;BME280;71676;50.998;7.098;2024-03-02T06:41:38;99557.19;;;5.38;58.82
76285;BME280;71676;50.998;7.098;2024-03-02T06:44:05;99560.50;;;5.31;58.70
76285;BME280;71676;50.998;7.098;2024-03-02T06:46:32;99561.44;;;5.38;58.81
76285;BME280;71676;50.998;7.098;2024-03-02T06:48:58;99556.09;;;5.14;59.42
76285;BME280;71676;50.998;7.098;2024-03-02T06:51:27;99545.78;;;5.03;59.32
76285;BME280;71676;50.998;7.098;2024-03-02T06:53:54;99559.63;;;5.28;59.05
76285;BME280;71676;50.998;7.098;2024-03-02T06:56:22;99553.31;;;4.94;59.81
76285;BME280;71676;50.998;7.098;2024-03-02T06:58:49;99564.50;;;5.04;60.00
76285;BME280;71676;50.998;7.098;2024-03-02T07:01:15;99562.84;;;5.10;59.81
76285;BME280;71676;50.998;7.098;2024-03-02T07:03:42;99572.28;;;5.14;59.60
76285;BME280;71676;50.998;7.098;2024-03-02T07:06:09;99568.00;;;5.15;59.93
76285;BME280;71676;50.998;7.098;2024-03-02T07:08:36;99560.34;;;5.16;59.62
76285;BME280;71676;50.998;7.098;2024-03-02T07:11:02;99550.31;;;5.34;59.31
76285;BME280;71676;50.998;7.098;2024-03-02T07:13:31;99551.09;;;5.27;59.47
76285;BME280;71676;50.998;7.098;2024-03-02T07:15:57;99562.00;;;5.11;59.76
76285;BME280;71676;50.998;7.098;2024-03-02T07:18:52;99556.19;;;5.26;59.44
76285;BME280;71676;50.998;7.098;2024-03-02T07:21:20;99556.25;;;5.32;59.45
76285;BME280;71676;50.998;7.098;2024-03-02T07:23:47;99573.31;;;5.34;59.31
76285;BME280;71676;50.998;7.098;2024-03-02T07:26:14;99574.41;;;5.60;58.32
76285;BME280;71676;50.998;7.098;2024-03-02T07:28:42;99560.88;;;5.73;57.93
76285;BME280;71676;50.998;7.098;2024-03-02T07:31:09;99570.41;;;5.95;57.64
76285;BME280;71676;50.998;7.098;2024-03-02T07:33:36;99591.00;;;6.13;57.36
76285;BME280;71676;50.998;7.098;2024-03-02T07:36:04;99588.38;;;6.06;57.27
76285;BME280;71676;50.998;7.098;2024-03-02T07:38:31;99587.66;;;6.23;57.08
76285;BME280;71676;50.998;7.098;2024-03-02T07:40:59;99589.47;;;6.40;56.29
76285;BME280;71676;50.998;7.098;2024-03-02T07:43:26;99603.28;;;6.76;56.69
76285;BME280;71676;50.998;7.098;2024-03-02T07:45:53;99599.09;;;6.95;55.42
76285;BME280;71676;50.998;7.098;2024-03-02T07:48:20;99595.66;;;6.88;55.04
76285;BME280;71676;50.998;7.098;2024-03-02T07:50:47;99588.88;;;7.04;54.79
76285;BME280;71676;50.998;7.098;2024-03-02T07:53:15;99580.31;;;7.02;54.46
76285;BME280;71676;50.998;7.098;2024-03-02T07:55:42;99583.78;;;7.20;54.32
76285;BME280;71676;50.998;7.098;2024-03-02T07:58:08;99590.63;;;7.23;54.04
76285;BME280;71676;50.998;7.098;2024-03-02T08:00:38;99588.13;;;7.56;54.13
76285;BME280;71676;50.998;7.098;2024-03-02T08:03:05;99582.13;;;7.61;53.42
76285;BME280;71676;50.998;7.098;2024-03-02T08:05:32;99587.25;;;7.63;53.01
76285;BME280;71676;50.998;7.098;2024-03-02T08:07:58;99587.28;;;7.84;52.08
76285;BME280;71676;50.998;7.098;2024-03-02T08:10:26;99595.81;;;7.74;52.20
76285;BME280;71676;50.998;7.098;2024-03-02T08:12:53;99600.09;;;7.89;52.62
76285;BME280;71676;50.998;7.098;2024-03-02T08:15:20;99591.50;;;8.29;52.57
76285;BME280;71676;50.998;7.098;2024-03-02T08:17:46;99599.13;;;8.54;52.44
76285;BME280;71676;50.998;7.098;2024-03-02T08:20:15;99595.69;;;8.64;51.41
76285;BME280;71676;50.998;7.098;2024-03-02T08:22:41;99599.09;;;8.68;51.41
76285;BME280;71676;50.998;7.098;2024-03-02T08:25:08;99599.78;;;8.98;50.65
76285;BME280;71676;50.998;7.098;2024-03-02T08:27:37;99598.16;;;8.88;49.87
76285;BME280;71676;50.998;7.098;2024-03-02T08:30:06;99599.81;;;9.00;49.68
76285;BME280;71676;50.998;7.098;2024-03-02T08:32:33;99597.94;;;9.35;49.34
76285;BME280;71676;50.998;7.098;2024-03-02T08:35:00;99604.59;;;9.60;48.90
76285;BME280;71676;50.998;7.098;2024-03-02T08:37:27;99599.38;;;9.68;48.12
76285;BME280;71676;50.998;7.098;2024-03-02T08:39:53;99596.81;;;9.68;48.02
76285;BME280;71676;50.998;7.098;2024-03-02T08:42:21;99600.22;;;9.73;48.33
76285;BME280;71676;50.998;7.098;2024-03-02T08:44:49;99608.56;;;10.00;47.85
76285;BME280;71676;50.998;7.098;2024-03-02T08:47:16;99601.72;;;9.96;47.17
76285;BME280;71676;50.998;7.098;2024-03-02T08:49:43;99608.31;;;10.26;47.73
76285;BME280;71676;50.998;7.098;2024-03-02T08:52:09;99598.78;;;10.37;47.10
76285;BME280;71676;50.998;7.098;2024-03-02T08:54:36;99602.91;;;10.53;46.24
76285;BME280;71676;50.998;7.098;2024-03-02T08:57:03;99608.50;;;10.88;45.37
76285;BME280;71676;50.998;7.098;2024-03-02T08:59:30;99613.06;;;10.65;45.48
76285;BME280;71676;50.998;7.098;2024-03-02T09:01:58;99613.19;;;10.54;45.84
76285;BME280;71676;50.998;7.098;2024-03-02T09:04:25;99611.25;;;10.73;45.38
76285;BME280;71676;50.998;7.098;2024-03-02T09:06:52;99614.97;;;11.19;45.28
76285;BME280;71676;50.998;7.098;2024-03-02T09:09:18;99609.53;;;11.37;45.32
76285;BME280;71676;50.998;7.098;2024-03-02T09:11:45;99611.97;;;11.51;44.58
76285;BME280;71676;50.998;7.098;2024-03-02T09:14:12;99620.97;;;11.80;44.24
76285;BME280;71676;50.998;7.098;2024-03-02T09:16:40;99622.06;;;11.66;43.97
76285;BME280;71676;50.998;7.098;2024-03-02T09:19:08;99613.00;;;11.94;42.30
76285;BME280;71676;50.998;7.098;2024-03-02T09:21:34;99605.25;;;11.94;42.47
76285;BME280;71676;50.998;7.098;2024-03-02T09:24:01;99601.47;;;12.13;43.75
76285;BME280;71676;50.998;7.098;2024-03-02T09:26:28;99601.47;;;12.13;42.21
76285;BME280;71676;50.998;7.098;2024-03-02T09:28:55;99605.69;;;12.66;41.05
76285;BME280;71676;50.998;7.098;2024-03-02T09:31:22;99602.56;;;12.91;43.39
76285;BME280;71676;50.998;7.098;2024-03-02T09:33:48;99607.13;;;13.20;40.76
76285;BME280;71676;50.998;7.098;2024-03-02T09:36:20;99601.22;;;13.55;40.11
76285;BME280;71676;50.998;7.098;2024-03-02T09:38:47;99598.03;;;13.40;39.62
76285;BME280;71676;50.998;7.098;2024-03-02T09:41:15;99590.66;;;13.62;40.76
76285;BME280;71676;50.998;7.098;2024-03-02T09:43:42;99606.19;;;13.62;38.80
76285;BME280;71676;50.998;7.098;2024-03-02T09:46:09;99599.06;;;13.72;38.59
76285;BME280;71676;50.998;7.098;2024-03-02T09:48:36;99562.53;;;13.45;39.65
76285;BME280;71676;50.998;7.098;2024-03-02T09:51:04;99605.72;;;13.82;38.85
76285;BME280;71676;50.998;7.098;2024-03-02T09:53:33;99583.91;;;13.55;40.04
76285;BME280;71676;50.998;7.098;2024-03-02T09:56:00;99615.66;;;13.98;39.03
76285;BME280;71676;50.998;7.098;2024-03-02T09:58:27;99603.59;;;13.97;38.30
76285;BME280;71676;50.998;7.098;2024-03-02T10:00:54;99607.81;;;14.01;38.46
76285;BME280;71676;50.998;7.098;2024-03-02T10:03:22;99606.47;;;13.85;37.64
76285;BME280;71676;50.998;7.098;2024-03-02T10:05:49;99599.31;;;14.30;37.41
76285;BME280;71676;50.998;7.098;2024-03-02T10:08:17;99578.34;;;14.37;38.43
76285;BME280;71676;50.998;7.098;2024-03-02T10:10:45;99594.09;;;14.63;37.81
76285;BME280;71676;50.998;7.098;2024-03-02T10:13:13;99599.47;;;14.56;37.05
76285;BME280;71676;50.998;7.098;2024-03-02T10:15:41;99594.19;;;13.93;37.88
76285;BME280;71676;50.998;7.098;2024-03-02T10:18:09;99601.41;;;14.48;37.28
76285;BME280;71676;50.998;7.098;2024-03-02T10:20:37;99596.81;;;14.25;36.85
76285;BME280;71676;50.998;7.098;2024-03-02T10:23:10;99591.50;;;14.63;36.85
76285;BME280;71676;50.998;7.098;2024-03-02T10:25:37;99588.00;;;14.32;37.96
76285;BME280;71676;50.998;7.098;2024-03-02T10:28:05;99591.97;;;14.77;36.35
76285;BME280;71676;50.998;7.098;2024-03-02T10:30:33;99586.59;;;15.13;36.83
76285;BME280;71676;50.998;7.098;2024-03-02T10:33:00;99580.63;;;15.38;35.19
76285;BME280;71676;50.998;7.098;2024-03-02T10:35:27;99568.47;;;15.66;34.72
76285;BME280;71676;50.998;7.098;2024-03-02T10:37:54;99569.28;;;15.41;35.89
76285;BME280;71676;50.998;7.098;2024-03-02T10:40:22;99569.59;;;15.84;35.75
76285;BME280;71676;50.998;7.098;2024-03-02T10:42:50;99564.72;;;15.75;33.40
76285;BME280;71676;50.998;7.098;2024-03-02T10:45:19;99565.16;;;16.13;34.84
76285;BME280;71676;50.998;7.098;2024-03-02T10:47:47;99560.88;;;16.11;33.62
76285;BME280;71676;50.998;7.098;2024-03-02T10:50:13;99559.47;;;16.02;33.96
76285;BME280;71676;50.998;7.098;2024-03-02T10:52:40;99548.03;;;15.56;34.69
76285;BME280;71676;50.998;7.098;2024-03-02T10:55:09;99556.00;;;16.02;34.03
76285;BME280;71676;50.998;7.098;2024-03-02T10:57:41;99557.41;;;16.12;33.98
76285;BME280;71676;50.998;7.098;2024-03-02T11:00:14;99548.03;;;16.06;33.24
76285;BME280;71676;50.998;7.098;2024-03-02T11:02:50;99553.78;;;16.16;33.05
76285;BME280;71676;50.998;7.098;2024-03-02T11:05:28;99535.88;;;16.33;32.88
76285;BME280;71676;50.998;7.098;2024-03-02T11:07:57;99547.94;;;16.82;33.60
76285;BME280;71676;50.998;7.098;2024-03-02T11:10:27;99543.50;;;17.07;33.30
76285;BME280;71676;50.998;7.098;2024-03-02T11:13:00;99547.84;;;16.62;32.40
76285;BME280;71676;50.998;7.098;2024-03-02T11:15:28;99549.34;;;16.67;33.93
76285;BME280;71676;50.998;7.098;2024-03-02T11:17:57;99549.56;;;17.07;31.48
76285;BME280;71676;50.998;7.098;2024-03-02T11:20:24;99551.13;;;16.67;32.84
76285;BME280;71676;50.998;7.098;2024-03-02T11:22:51;99538.03;;;16.68;32.20
76285;BME280;71676;50.998;7.098;2024-03-02T11:25:23;99546.47;;;16.52;32.90
76285;BME280;71676;50.998;7.098;2024-03-02T11:28:00;99537.00;;;16.95;32.39
76285;BME280;71676;50.998;7.098;2024-03-02T11:30:49;99537.78;;;16.28;33.20
76285;BME280;71676;50.998;7.098;2024-03-02T11:33:22;99535.47;;;16.44;33.21
76285;BME280;71676;50.998;7.098;2024-03-02T11:35:49;99543.69;;;16.07;34.01
76285;BME280;71676;50.998;7.098;2024-03-02T11:38:17;99534.25;;;16.29;33.78
76285;BME280;71676;50.998;7.098;2024-03-02T11:40:44;99526.41;;;16.31;33.79
76285;BME280;71676;50.998;7.098;2024-03-02T11:43:11;99542.63;;;15.88;33.93
76285;BME280;71676;50.998;7.098;2024-03-02T11:45:37;99543.25;;;16.19;33.46
76285;BME280;71676;50.998;7.098;2024-03-02T11:48:06;99534.00;;;16.12;32.70
76285;BME280;71676;50.998;7.098;2024-03-02T11:50:35;99549.13;;;16.01;33.57
76285;BME280;71676;50.998;7.098;2024-03-02T11:53:03;99539.78;;;15.43;34.72
76285;BME280;71676;50.998;7.098;2024-03-02T11:55:34;99542.94;;;15.53;34.36
76285;BME280;71676;50.998;7.098;2024-03-02T11:58:02;99541.06;;;15.01;34.93
76285;BME280;71676;50.998;7.098;2024-03-02T12:00:30;99539.41;;;15.26;35.65
76285;BME280;71676;50.998;7.098;2024-03-02T12:03:00;99537.00;;;14.93;35.24
76285;BME280;71676;50.998;7.098;2024-03-02T12:05:27;99486.28;;;14.83;35.53
76285;BME280;71676;50.998;7.098;2024-03-02T12:07:57;99538.22;;;14.52;36.40
76285;BME280;71676;50.998;7.098;2024-03-02T12:10:24;99528.81;;;15.06;35.25
76285;BME280;71676;50.998;7.098;2024-03-02T12:12:57;99525.16;;;14.84;35.88
76285;BME280;71676;50.998;7.098;2024-03-02T12:15:25;99523.22;;;14.91;35.60
76285;BME280;71676;50.998;7.098;2024-03-02T12:17:54;99534.41;;;14.63;36.35
76285;BME280;71676;50.998;7.098;2024-03-02T12:20:21;99539.22;;;14.45;36.95
76285;BME280;71676;50.998;7.098;2024-03-02T12:22:49;99540.53;;;14.61;36.78
76285;BME280;71676;50.998;7.098;2024-03-02T12:25:19;99535.78;;;14.14;37.58
76285;BME280;71676;50.998;7.098;2024-03-02T12:27:46;99495.50;;;13.69;37.44
76285;BME280;71676;50.998;7.098;2024-03-02T12:30:14;99520.44;;;14.37;37.66
76285;BME280;71676;50.998;7.098;2024-03-02T12:32:41;99514.44;;;14.65;37.43
76285;BME280;71676;50.998;7.098;2024-03-02T12:35:08;99523.25;;;14.29;37.70
76285;BME280;71676;50.998;7.098;2024-03-02T12:37:42;99480.81;;;14.01;37.70
76285;BME280;71676;50.998;7.098;2024-03-02T12:40:10;99504.03;;;13.74;38.28
76285;BME280;71676;50.998;7.098;2024-03-02T12:42:39;99501.53;;;14.01;38.16
76285;BME280;71676;50.998;7.098;2024-03-02T12:45:07;99499.63;;;13.76;38.75
76285;BME280;71676;50.998;7.098;2024-03-02T12:47:34;99508.47;;;13.69;38.80
76285;BME280;71676;50.998;7.098;2024-03-02T12:50:01;99507.16;;;13.51;38.69
76285;BME280;71676;50.998;7.098;2024-03-02T12:52:27;99497.44;;;13.94;38.35
76285;BME280;71676;50.998;7.098;2024-03-02T12:54:54;99489.88;;;14.17;38.14
76285;BME280;71676;50.998;7.098;2024-03-02T12:57:25;99488.94;;;13.56;38.69
76285;BME280;71676;50.998;7.098;2024-03-02T12:59:58;99487.16;;;13.58;38.29
76285;BME280;71676;50.998;7.098;2024-03-02T13:02:28;99484.13;;;13.39;38.64
76285;BME280;71676;50.998;7.098;2024-03-02T13:04:55;99478.81;;;13.80;38.20
76285;BME280;71676;50.998;7.098;2024-03-02T13:07:24;99476.09;;;13.85;38.90
76285;BME280;71676;50.998;7.098;2024-03-02T13:09:51;99474.91;;;13.64;38.61